Flugplatz Hameln-Pyrmont

Für EDVW sind keine METAR/TAF Berichte vorhanden.
Es werden die Flugwettermeldungen vom Flugplatz Buckeburg Airport in 37 km Entfernung angezeigt.

Bericht für ETHB

vom 23.02. um 21:20 UTC

Wind 8 kt aus 300°

Sichtweite 10 km oder mehr

gering bewölkt in 900 ft

Temperatur 4.0°C

Taupunkt 2.0°C

Luftfeuchtigkeit 87%

Luftdruck 1017 hPa

ETHB 232120Z 30008KT 9999 FEW009 04/02 Q1017 RESHRA BLU+
Keine Prognose (TAF) verfügbar.
Impressum